sensor_id;sensor_type;location;lat;lon;timestamp;P1;durP1;ratioP1;P2;durP2;ratioP2
40737;SDS011;54759;48.094;-1.628;2022-08-03T00:01:27;0.63;;;0.20;;
40737;SDS011;54759;48.094;-1.628;2022-08-03T00:04:29;0.30;;;0.30;;
40737;SDS011;54759;48.094;-1.628;2022-08-03T00:07:34;0.45;;;0.25;;
40737;SDS011;54759;48.094;-1.628;2022-08-03T00:10:40;0.50;;;0.30;;
40737;SDS011;54759;48.094;-1.628;2022-08-03T00:13:42;0.40;;;0.32;;
40737;SDS011;54759;48.094;-1.628;2022-08-03T00:16:44;0.43;;;0.30;;
40737;SDS011;54759;48.094;-1.628;2022-08-03T00:19:46;0.20;;;0.20;;
40737;SDS011;54759;48.094;-1.628;2022-08-03T00:22:47;0.60;;;0.40;;
40737;SDS011;54759;48.094;-1.628;2022-08-03T00:25:49;0.30;;;0.30;;
40737;SDS011;54759;48.094;-1.628;2022-08-03T00:28:51;0.20;;;0.20;;
40737;SDS011;54759;48.094;-1.628;2022-08-03T00:31:53;0.20;;;0.20;;
40737;SDS011;54759;48.094;-1.628;2022-08-03T00:35:01;0.32;;;0.30;;
40737;SDS011;54759;48.094;-1.628;2022-08-03T00:38:09;0.30;;;0.30;;
40737;SDS011;54759;48.094;-1.628;2022-08-03T00:41:10;0.30;;;0.30;;
40737;SDS011;54759;48.094;-1.628;2022-08-03T00:44:16;0.25;;;0.20;;
40737;SDS011;54759;48.094;-1.628;2022-08-03T00:47:18;0.22;;;0.22;;
40737;SDS011;54759;48.094;-1.628;2022-08-03T00:50:19;0.32;;;0.32;;
40737;SDS011;54759;48.094;-1.628;2022-08-03T00:53:22;0.60;;;0.35;;
40737;SDS011;54759;48.094;-1.628;2022-08-03T00:56:25;0.30;;;0.30;;
40737;SDS011;54759;48.094;-1.628;2022-08-03T00:59:28;0.30;;;0.20;;
40737;SDS011;54759;48.094;-1.628;2022-08-03T01:02:33;0.30;;;0.22;;
40737;SDS011;54759;48.094;-1.628;2022-08-03T01:05:37;0.40;;;0.20;;
40737;SDS011;54759;48.094;-1.628;2022-08-03T01:08:46;0.50;;;0.40;;
40737;SDS011;54759;48.094;-1.628;2022-08-03T01:11:55;0.20;;;0.20;;
40737;SDS011;54759;48.094;-1.628;2022-08-03T01:15:06;0.50;;;0.22;;
40737;SDS011;54759;48.094;-1.628;2022-08-03T01:18:13;0.30;;;0.30;;
40737;SDS011;54759;48.094;-1.628;2022-08-03T01:21:20;0.30;;;0.30;;
40737;SDS011;54759;48.094;-1.628;2022-08-03T01:24:30;0.20;;;0.20;;
40737;SDS011;54759;48.094;-1.628;2022-08-03T01:27:44;0.38;;;0.25;;
40737;SDS011;54759;48.094;-1.628;2022-08-03T01:30:55;0.40;;;0.30;;
40737;SDS011;54759;48.094;-1.628;2022-08-03T01:34:01;0.47;;;0.30;;
40737;SDS011;54759;48.094;-1.628;2022-08-03T01:37:10;0.20;;;0.20;;
40737;SDS011;54759;48.094;-1.628;2022-08-03T01:40:16;0.20;;;0.20;;
40737;SDS011;54759;48.094;-1.628;2022-08-03T01:43:20;0.50;;;0.30;;
40737;SDS011;54759;48.094;-1.628;2022-08-03T01:46:48;0.35;;;0.35;;
40737;SDS011;54759;48.094;-1.628;2022-08-03T01:49:51;0.47;;;0.32;;
40737;SDS011;54759;48.094;-1.628;2022-08-03T01:52:53;0.30;;;0.30;;
40737;SDS011;54759;48.094;-1.628;2022-08-03T01:55:57;0.32;;;0.20;;
40737;SDS011;54759;48.094;-1.628;2022-08-03T01:59:02;0.77;;;0.20;;
40737;SDS011;54759;48.094;-1.628;2022-08-03T02:02:05;0.17;;;0.17;;
40737;SDS011;54759;48.094;-1.628;2022-08-03T02:05:28;0.47;;;0.22;;
40737;SDS011;54759;48.094;-1.628;2022-08-03T02:08:31;0.35;;;0.30;;
40737;SDS011;54759;48.094;-1.628;2022-08-03T02:11:33;0.30;;;0.22;;
40737;SDS011;54759;48.094;-1.628;2022-08-03T02:14:38;0.30;;;0.30;;
40737;SDS011;54759;48.094;-1.628;2022-08-03T02:17:42;0.25;;;0.25;;
40737;SDS011;54759;48.094;-1.628;2022-08-03T02:20:45;0.45;;;0.20;;
40737;SDS011;54759;48.094;-1.628;2022-08-03T02:23:47;0.50;;;0.30;;
40737;SDS011;54759;48.094;-1.628;2022-08-03T02:26:49;0.60;;;0.38;;
40737;SDS011;54759;48.094;-1.628;2022-08-03T02:29:54;0.68;;;0.30;;
40737;SDS011;54759;48.094;-1.628;2022-08-03T02:33:01;0.22;;;0.22;;
40737;SDS011;54759;48.094;-1.628;2022-08-03T02:36:04;0.68;;;0.50;;
40737;SDS011;54759;48.094;-1.628;2022-08-03T02:39:09;0.32;;;0.22;;
40737;SDS011;54759;48.094;-1.628;2022-08-03T02:42:13;0.40;;;0.30;;
40737;SDS011;54759;48.094;-1.628;2022-08-03T02:45:20;0.40;;;0.40;;
40737;SDS011;54759;48.094;-1.628;2022-08-03T02:48:26;1.00;;;0.30;;
40737;SDS011;54759;48.094;-1.628;2022-08-03T02:51:31;0.30;;;0.30;;
40737;SDS011;54759;48.094;-1.628;2022-08-03T02:54:36;0.38;;;0.32;;
40737;SDS011;54759;48.094;-1.628;2022-08-03T02:57:39;0.20;;;0.20;;
40737;SDS011;54759;48.094;-1.628;2022-08-03T03:00:43;0.43;;;0.30;;
40737;SDS011;54759;48.094;-1.628;2022-08-03T03:03:45;0.40;;;0.40;;
40737;SDS011;54759;48.094;-1.628;2022-08-03T03:06:49;0.40;;;0.40;;
40737;SDS011;54759;48.094;-1.628;2022-08-03T03:09:52;0.20;;;0.20;;
40737;SDS011;54759;48.094;-1.628;2022-08-03T03:12:55;0.52;;;0.20;;
40737;SDS011;54759;48.094;-1.628;2022-08-03T03:15:58;0.75;;;0.30;;
40737;SDS011;54759;48.094;-1.628;2022-08-03T03:19:02;1.08;;;0.25;;
40737;SDS011;54759;48.094;-1.628;2022-08-03T03:22:05;0.50;;;0.30;;
40737;SDS011;54759;48.094;-1.628;2022-08-03T03:25:08;0.60;;;0.30;;
40737;SDS011;54759;48.094;-1.628;2022-08-03T03:28:10;0.63;;;0.30;;
40737;SDS011;54759;48.094;-1.628;2022-08-03T03:31:12;3.17;;;0.43;;
40737;SDS011;54759;48.094;-1.628;2022-08-03T03:34:14;0.52;;;0.40;;
40737;SDS011;54759;48.094;-1.628;2022-08-03T03:37:16;1.48;;;0.38;;
40737;SDS011;54759;48.094;-1.628;2022-08-03T03:40:18;1.38;;;0.32;;
40737;SDS011;54759;48.094;-1.628;2022-08-03T03:43:20;0.93;;;0.20;;
40737;SDS011;54759;48.094;-1.628;2022-08-03T03:46:23;0.50;;;0.35;;
40737;SDS011;54759;48.094;-1.628;2022-08-03T03:49:25;0.30;;;0.30;;
40737;SDS011;54759;48.094;-1.628;2022-08-03T03:52:27;1.08;;;0.30;;
40737;SDS011;54759;48.094;-1.628;2022-08-03T03:55:29;0.30;;;0.25;;
40737;SDS011;54759;48.094;-1.628;2022-08-03T03:58:31;0.30;;;0.30;;
40737;SDS011;54759;48.094;-1.628;2022-08-03T04:01:32;0.40;;;0.30;;
40737;SDS011;54759;48.094;-1.628;2022-08-03T04:04:35;0.30;;;0.30;;
40737;SDS011;54759;48.094;-1.628;2022-08-03T04:07:55;0.22;;;0.22;;
40737;SDS011;54759;48.094;-1.628;2022-08-03T04:11:14;0.30;;;0.20;;
40737;SDS011;54759;48.094;-1.628;2022-08-03T04:14:31;0.50;;;0.20;;
40737;SDS011;54759;48.094;-1.628;2022-08-03T04:17:38;0.40;;;0.20;;
40737;SDS011;54759;48.094;-1.628;2022-08-03T04:20:43;0.30;;;0.20;;
40737;SDS011;54759;48.094;-1.628;2022-08-03T04:23:48;0.28;;;0.20;;
40737;SDS011;54759;48.094;-1.628;2022-08-03T04:26:54;0.20;;;0.20;;
40737;SDS011;54759;48.094;-1.628;2022-08-03T04:29:57;0.20;;;0.20;;
40737;SDS011;54759;48.094;-1.628;2022-08-03T04:33:02;0.57;;;0.30;;
40737;SDS011;54759;48.094;-1.628;2022-08-03T04:36:05;0.22;;;0.20;;
40737;SDS011;54759;48.094;-1.628;2022-08-03T04:39:09;0.38;;;0.30;;
40737;SDS011;54759;48.094;-1.628;2022-08-03T04:42:14;0.63;;;0.20;;
40737;SDS011;54759;48.094;-1.628;2022-08-03T04:45:16;0.50;;;0.50;;
40737;SDS011;54759;48.094;-1.628;2022-08-03T04:48:19;0.28;;;0.20;;
40737;SDS011;54759;48.094;-1.628;2022-08-03T04:51:21;0.40;;;0.20;;
40737;SDS011;54759;48.094;-1.628;2022-08-03T04:54:24;0.30;;;0.20;;
40737;SDS011;54759;48.094;-1.628;2022-08-03T04:57:25;0.25;;;0.22;;
40737;SDS011;54759;48.094;-1.628;2022-08-03T05:00:27;0.35;;;0.20;;
40737;SDS011;54759;48.094;-1.628;2022-08-03T05:03:29;0.25;;;0.20;;
40737;SDS011;54759;48.094;-1.628;2022-08-03T05:06:32;1.35;;;0.32;;
40737;SDS011;54759;48.094;-1.628;2022-08-03T05:09:35;0.30;;;0.13;;
40737;SDS011;54759;48.094;-1.628;2022-08-03T05:12:53;0.30;;;0.30;;
40737;SDS011;54759;48.094;-1.628;2022-08-03T05:15:55;0.17;;;0.17;;
40737;SDS011;54759;48.094;-1.628;2022-08-03T05:18:56;0.35;;;0.20;;
40737;SDS011;54759;48.094;-1.628;2022-08-03T05:21:59;0.20;;;0.20;;
40737;SDS011;54759;48.094;-1.628;2022-08-03T05:25:00;0.20;;;0.20;;
40737;SDS011;54759;48.094;-1.628;2022-08-03T05:28:02;0.40;;;0.30;;
40737;SDS011;54759;48.094;-1.628;2022-08-03T05:31:04;0.40;;;0.28;;
40737;SDS011;54759;48.094;-1.628;2022-08-03T05:34:05;0.22;;;0.20;;
40737;SDS011;54759;48.094;-1.628;2022-08-03T05:37:08;0.30;;;0.30;;
40737;SDS011;54759;48.094;-1.628;2022-08-03T05:40:10;0.35;;;0.30;;
40737;SDS011;54759;48.094;-1.628;2022-08-03T05:43:15;0.35;;;0.35;;
40737;SDS011;54759;48.094;-1.628;2022-08-03T05:46:17;0.22;;;0.20;;
40737;SDS011;54759;48.094;-1.628;2022-08-03T05:49:21;0.57;;;0.28;;
40737;SDS011;54759;48.094;-1.628;2022-08-03T05:52:24;0.47;;;0.40;;
40737;SDS011;54759;48.094;-1.628;2022-08-03T05:55:26;0.20;;;0.20;;
40737;SDS011;54759;48.094;-1.628;2022-08-03T05:58:27;0.30;;;0.30;;
40737;SDS011;54759;48.094;-1.628;2022-08-03T06:01:30;0.82;;;0.45;;
40737;SDS011;54759;48.094;-1.628;2022-08-03T06:04:32;0.68;;;0.32;;
40737;SDS011;54759;48.094;-1.628;2022-08-03T06:07:34;0.38;;;0.30;;
40737;SDS011;54759;48.094;-1.628;2022-08-03T06:10:36;0.40;;;0.40;;
40737;SDS011;54759;48.094;-1.628;2022-08-03T06:13:39;0.28;;;0.20;;
40737;SDS011;54759;48.094;-1.628;2022-08-03T06:16:41;0.40;;;0.35;;
40737;SDS011;54759;48.094;-1.628;2022-08-03T06:19:42;0.70;;;0.30;;
40737;SDS011;54759;48.094;-1.628;2022-08-03T06:22:44;0.30;;;0.30;;
40737;SDS011;54759;48.094;-1.628;2022-08-03T06:26:00;0.30;;;0.30;;
40737;SDS011;54759;48.094;-1.628;2022-08-03T06:29:02;0.52;;;0.30;;
40737;SDS011;54759;48.094;-1.628;2022-08-03T06:32:04;0.30;;;0.30;;
40737;SDS011;54759;48.094;-1.628;2022-08-03T06:35:06;0.30;;;0.30;;
40737;SDS011;54759;48.094;-1.628;2022-08-03T06:38:09;0.32;;;0.30;;
40737;SDS011;54759;48.094;-1.628;2022-08-03T06:41:12;1.05;;;0.40;;
40737;SDS011;54759;48.094;-1.628;2022-08-03T06:44:14;3.97;;;0.90;;
40737;SDS011;54759;48.094;-1.628;2022-08-03T06:47:16;2.35;;;0.65;;
40737;SDS011;54759;48.094;-1.628;2022-08-03T06:50:17;3.38;;;0.98;;
40737;SDS011;54759;48.094;-1.628;2022-08-03T06:53:25;2.10;;;0.60;;
40737;SDS011;54759;48.094;-1.628;2022-08-03T06:56:26;2.00;;;1.80;;
40737;SDS011;54759;48.094;-1.628;2022-08-03T06:59:28;2.40;;;1.42;;
40737;SDS011;54759;48.094;-1.628;2022-08-03T07:02:49;5.18;;;1.75;;
40737;SDS011;54759;48.094;-1.628;2022-08-03T07:05:58;3.25;;;1.52;;
40737;SDS011;54759;48.094;-1.628;2022-08-03T07:09:00;2.50;;;1.50;;
40737;SDS011;54759;48.094;-1.628;2022-08-03T07:12:03;3.22;;;1.70;;
40737;SDS011;54759;48.094;-1.628;2022-08-03T07:15:07;5.05;;;1.65;;
40737;SDS011;54759;48.094;-1.628;2022-08-03T07:18:21;5.35;;;1.90;;
40737;SDS011;54759;48.094;-1.628;2022-08-03T07:21:30;4.40;;;1.85;;
40737;SDS011;54759;48.094;-1.628;2022-08-03T07:24:33;6.10;;;1.58;;
40737;SDS011;54759;48.094;-1.628;2022-08-03T07:27:35;3.17;;;1.55;;
40737;SDS011;54759;48.094;-1.628;2022-08-03T07:30:37;2.35;;;1.90;;
40737;SDS011;54759;48.094;-1.628;2022-08-03T07:33:39;1.67;;;1.25;;
40737;SDS011;54759;48.094;-1.628;2022-08-03T07:36:40;2.13;;;1.30;;
40737;SDS011;54759;48.094;-1.628;2022-08-03T07:39:42;2.35;;;1.20;;
40737;SDS011;54759;48.094;-1.628;2022-08-03T07:42:44;1.70;;;1.10;;
40737;SDS011;54759;48.094;-1.628;2022-08-03T07:45:46;2.85;;;1.20;;
40737;SDS011;54759;48.094;-1.628;2022-08-03T07:48:47;2.97;;;1.50;;
40737;SDS011;54759;48.094;-1.628;2022-08-03T07:51:49;2.38;;;1.00;;
40737;SDS011;54759;48.094;-1.628;2022-08-03T07:55:06;4.50;;;1.73;;
40737;SDS011;54759;48.094;-1.628;2022-08-03T07:58:10;2.28;;;1.42;;
40737;SDS011;54759;48.094;-1.628;2022-08-03T08:01:17;3.38;;;1.35;;
40737;SDS011;54759;48.094;-1.628;2022-08-03T08:04:19;3.63;;;1.35;;
40737;SDS011;54759;48.094;-1.628;2022-08-03T08:07:20;2.28;;;1.25;;
40737;SDS011;54759;48.094;-1.628;2022-08-03T08:10:23;1.45;;;0.82;;
40737;SDS011;54759;48.094;-1.628;2022-08-03T08:13:24;3.97;;;1.20;;
40737;SDS011;54759;48.094;-1.628;2022-08-03T08:16:26;2.88;;;1.20;;
40737;SDS011;54759;48.094;-1.628;2022-08-03T08:19:28;1.70;;;1.20;;
40737;SDS011;54759;48.094;-1.628;2022-08-03T08:22:33;0.70;;;0.70;;
40737;SDS011;54759;48.094;-1.628;2022-08-03T08:25:35;3.10;;;1.02;;
40737;SDS011;54759;48.094;-1.628;2022-08-03T08:28:37;1.77;;;1.05;;
40737;SDS011;54759;48.094;-1.628;2022-08-03T08:31:38;1.05;;;0.82;;
40737;SDS011;54759;48.094;-1.628;2022-08-03T08:34:40;3.85;;;1.10;;
40737;SDS011;54759;48.094;-1.628;2022-08-03T08:37:42;1.42;;;0.80;;
40737;SDS011;54759;48.094;-1.628;2022-08-03T08:40:54;0.90;;;0.82;;
40737;SDS011;54759;48.094;-1.628;2022-08-03T08:43:56;2.13;;;1.00;;
40737;SDS011;54759;48.094;-1.628;2022-08-03T08:47:01;1.13;;;0.88;;
40737;SDS011;54759;48.094;-1.628;2022-08-03T08:50:03;1.63;;;0.90;;
40737;SDS011;54759;48.094;-1.628;2022-08-03T08:53:28;2.17;;;0.80;;
40737;SDS011;54759;48.094;-1.628;2022-08-03T08:56:30;1.73;;;0.63;;
40737;SDS011;54759;48.094;-1.628;2022-08-03T08:59:33;1.27;;;0.90;;
40737;SDS011;54759;48.094;-1.628;2022-08-03T09:02:49;1.52;;;0.70;;
40737;SDS011;54759;48.094;-1.628;2022-08-03T09:05:51;3.42;;;1.33;;
40737;SDS011;54759;48.094;-1.628;2022-08-03T09:08:56;4.35;;;0.88;;
40737;SDS011;54759;48.094;-1.628;2022-08-03T09:11:59;2.88;;;0.88;;
40737;SDS011;54759;48.094;-1.628;2022-08-03T09:15:21;2.72;;;1.50;;
40737;SDS011;54759;48.094;-1.628;2022-08-03T09:18:27;1.67;;;0.80;;
40737;SDS011;54759;48.094;-1.628;2022-08-03T09:21:32;3.00;;;0.90;;
40737;SDS011;54759;48.094;-1.628;2022-08-03T09:24:53;4.70;;;0.77;;
40737;SDS011;54759;48.094;-1.628;2022-08-03T09:28:17;2.00;;;1.08;;
40737;SDS011;54759;48.094;-1.628;2022-08-03T09:31:41;2.20;;;1.10;;
40737;SDS011;54759;48.094;-1.628;2022-08-03T09:34:45;2.25;;;1.02;;
40737;SDS011;54759;48.094;-1.628;2022-08-03T09:37:50;3.03;;;0.68;;
40737;SDS011;54759;48.094;-1.628;2022-08-03T09:41:16;7.55;;;1.30;;
40737;SDS011;54759;48.094;-1.628;2022-08-03T09:44:19;2.55;;;1.17;;
40737;SDS011;54759;48.094;-1.628;2022-08-03T09:47:35;2.50;;;1.10;;
40737;SDS011;54759;48.094;-1.628;2022-08-03T09:57:21;1.80;;;0.63;;
40737;SDS011;54759;48.094;-1.628;2022-08-03T10:00:24;2.42;;;1.00;;
40737;SDS011;54759;48.094;-1.628;2022-08-03T10:03:26;1.88;;;0.85;;
40737;SDS011;54759;48.094;-1.628;2022-08-03T10:06:30;2.58;;;1.00;;
40737;SDS011;54759;48.094;-1.628;2022-08-03T10:09:32;2.17;;;1.17;;
40737;SDS011;54759;48.094;-1.628;2022-08-03T10:12:33;3.28;;;1.08;;
40737;SDS011;54759;48.094;-1.628;2022-08-03T10:15:35;2.80;;;1.17;;
40737;SDS011;54759;48.094;-1.628;2022-08-03T10:18:59;3.80;;;1.63;;
40737;SDS011;54759;48.094;-1.628;2022-08-03T10:22:02;2.08;;;1.35;;
40737;SDS011;54759;48.094;-1.628;2022-08-03T10:25:07;1.75;;;1.05;;
40737;SDS011;54759;48.094;-1.628;2022-08-03T10:28:14;2.88;;;0.90;;
40737;SDS011;54759;48.094;-1.628;2022-08-03T10:31:19;2.55;;;0.90;;
40737;SDS011;54759;48.094;-1.628;2022-08-03T10:34:25;1.90;;;1.13;;
40737;SDS011;54759;48.094;-1.628;2022-08-03T10:37:29;1.60;;;0.75;;
40737;SDS011;54759;48.094;-1.628;2022-08-03T10:40:34;1.80;;;0.80;;
40737;SDS011;54759;48.094;-1.628;2022-08-03T10:43:52;1.92;;;1.20;;
40737;SDS011;54759;48.094;-1.628;2022-08-03T10:46:59;3.83;;;1.00;;
40737;SDS011;54759;48.094;-1.628;2022-08-03T10:50:01;2.50;;;1.10;;
40737;SDS011;54759;48.094;-1.628;2022-08-03T10:53:04;1.85;;;0.90;;
40737;SDS011;54759;48.094;-1.628;2022-08-03T10:56:10;1.02;;;0.80;;
40737;SDS011;54759;48.094;-1.628;2022-08-03T10:59:55;1.38;;;0.70;;
40737;SDS011;54759;48.094;-1.628;2022-08-03T11:03:01;1.00;;;0.63;;
40737;SDS011;54759;48.094;-1.628;2022-08-03T11:06:13;1.63;;;1.23;;
40737;SDS011;54759;48.094;-1.628;2022-08-03T11:09:18;0.75;;;0.52;;
40737;SDS011;54759;48.094;-1.628;2022-08-03T11:12:21;3.85;;;0.90;;
40737;SDS011;54759;48.094;-1.628;2022-08-03T11:15:32;2.78;;;1.27;;
40737;SDS011;54759;48.094;-1.628;2022-08-03T11:18:36;3.85;;;1.50;;
40737;SDS011;54759;48.094;-1.628;2022-08-03T11:21:57;2.97;;;1.25;;
40737;SDS011;54759;48.094;-1.628;2022-08-03T11:25:02;3.97;;;1.60;;
40737;SDS011;54759;48.094;-1.628;2022-08-03T11:35:06;2.08;;;1.73;;
40737;SDS011;54759;48.094;-1.628;2022-08-03T11:38:10;2.88;;;1.40;;
40737;SDS011;54759;48.094;-1.628;2022-08-03T11:41:20;1.83;;;1.30;;
40737;SDS011;54759;48.094;-1.628;2022-08-03T11:44:43;3.30;;;1.40;;
40737;SDS011;54759;48.094;-1.628;2022-08-03T11:47:48;5.10;;;1.40;;
40737;SDS011;54759;48.094;-1.628;2022-08-03T11:50:54;1.92;;;0.80;;
40737;SDS011;54759;48.094;-1.628;2022-08-03T11:54:00;1.38;;;0.95;;
40737;SDS011;54759;48.094;-1.628;2022-08-03T11:57:03;1.35;;;1.00;;
40737;SDS011;54759;48.094;-1.628;2022-08-03T12:03:21;0.90;;;0.80;;
40737;SDS011;54759;48.094;-1.628;2022-08-03T12:06:23;0.75;;;0.75;;
40737;SDS011;54759;48.094;-1.628;2022-08-03T12:09:25;4.13;;;1.00;;
40737;SDS011;54759;48.094;-1.628;2022-08-03T12:12:26;1.13;;;0.80;;
40737;SDS011;54759;48.094;-1.628;2022-08-03T12:15:29;0.82;;;0.63;;
40737;SDS011;54759;48.094;-1.628;2022-08-03T12:18:33;1.23;;;0.70;;
40737;SDS011;54759;48.094;-1.628;2022-08-03T12:21:44;0.70;;;0.60;;
40737;SDS011;54759;48.094;-1.628;2022-08-03T12:24:57;0.70;;;0.70;;
40737;SDS011;54759;48.094;-1.628;2022-08-03T12:31:37;0.80;;;0.50;;
40737;SDS011;54759;48.094;-1.628;2022-08-03T12:34:46;0.50;;;0.50;;
40737;SDS011;54759;48.094;-1.628;2022-08-03T12:37:49;0.85;;;0.63;;
40737;SDS011;54759;48.094;-1.628;2022-08-03T12:40:56;0.63;;;0.60;;
40737;SDS011;54759;48.094;-1.628;2022-08-03T12:43:59;1.63;;;0.65;;
40737;SDS011;54759;48.094;-1.628;2022-08-03T12:47:03;0.98;;;0.60;;
40737;SDS011;54759;48.094;-1.628;2022-08-03T12:50:06;0.93;;;0.55;;
40737;SDS011;54759;48.094;-1.628;2022-08-03T12:53:27;0.60;;;0.60;;
40737;SDS011;54759;48.094;-1.628;2022-08-03T12:56:29;0.40;;;0.40;;
40737;SDS011;54759;48.094;-1.628;2022-08-03T12:59:31;0.70;;;0.52;;
40737;SDS011;54759;48.094;-1.628;2022-08-03T13:02:40;0.68;;;0.60;;
40737;SDS011;54759;48.094;-1.628;2022-08-03T13:05:46;2.17;;;0.60;;
40737;SDS011;54759;48.094;-1.628;2022-08-03T13:08:49;0.73;;;0.52;;
40737;SDS011;54759;48.094;-1.628;2022-08-03T13:12:05;0.40;;;0.30;;
40737;SDS011;54759;48.094;-1.628;2022-08-03T13:15:08;0.70;;;0.57;;
40737;SDS011;54759;48.094;-1.628;2022-08-03T13:18:10;0.73;;;0.43;;
40737;SDS011;54759;48.094;-1.628;2022-08-03T13:21:18;0.65;;;0.50;;
40737;SDS011;54759;48.094;-1.628;2022-08-03T13:24:21;0.80;;;0.60;;
40737;SDS011;54759;48.094;-1.628;2022-08-03T13:27:23;0.93;;;0.55;;
40737;SDS011;54759;48.094;-1.628;2022-08-03T13:30:45;0.75;;;0.50;;
40737;SDS011;54759;48.094;-1.628;2022-08-03T13:33:46;0.63;;;0.40;;
40737;SDS011;54759;48.094;-1.628;2022-08-03T13:36:48;0.77;;;0.50;;
40737;SDS011;54759;48.094;-1.628;2022-08-03T13:40:10;0.52;;;0.30;;
40737;SDS011;54759;48.094;-1.628;2022-08-03T13:43:15;1.10;;;0.50;;
40737;SDS011;54759;48.094;-1.628;2022-08-03T13:46:16;0.43;;;0.40;;
40737;SDS011;54759;48.094;-1.628;2022-08-03T13:49:19;0.50;;;0.40;;
40737;SDS011;54759;48.094;-1.628;2022-08-03T13:52:21;0.52;;;0.50;;
40737;SDS011;54759;48.094;-1.628;2022-08-03T13:55:24;0.40;;;0.40;;
40737;SDS011;54759;48.094;-1.628;2022-08-03T13:58:25;0.40;;;0.40;;
40737;SDS011;54759;48.094;-1.628;2022-08-03T14:01:27;1.33;;;0.50;;
40737;SDS011;54759;48.094;-1.628;2022-08-03T14:04:48;1.20;;;0.40;;
40737;SDS011;54759;48.094;-1.628;2022-08-03T14:07:50;0.85;;;0.40;;
40737;SDS011;54759;48.094;-1.628;2022-08-03T14:10:57;0.65;;;0.40;;
40737;SDS011;54759;48.094;-1.628;2022-08-03T14:13:59;0.35;;;0.30;;
40737;SDS011;54759;48.094;-1.628;2022-08-03T14:17:00;0.40;;;0.32;;
40737;SDS011;54759;48.094;-1.628;2022-08-03T14:20:03;1.55;;;0.65;;
40737;SDS011;54759;48.094;-1.628;2022-08-03T14:23:27;1.20;;;0.40;;
40737;SDS011;54759;48.094;-1.628;2022-08-03T14:26:29;2.13;;;0.60;;
40737;SDS011;54759;48.094;-1.628;2022-08-03T14:29:30;0.30;;;0.30;;
40737;SDS011;54759;48.094;-1.628;2022-08-03T14:32:32;0.50;;;0.30;;
40737;SDS011;54759;48.094;-1.628;2022-08-03T14:35:34;0.55;;;0.35;;
40737;SDS011;54759;48.094;-1.628;2022-08-03T14:38:35;0.25;;;0.20;;
40737;SDS011;54759;48.094;-1.628;2022-08-03T14:41:37;0.20;;;0.20;;
40737;SDS011;54759;48.094;-1.628;2022-08-03T14:44:39;0.30;;;0.20;;
40737;SDS011;54759;48.094;-1.628;2022-08-03T14:47:40;0.25;;;0.22;;
40737;SDS011;54759;48.094;-1.628;2022-08-03T14:51:03;0.52;;;0.38;;
40737;SDS011;54759;48.094;-1.628;2022-08-03T14:54:04;1.58;;;0.20;;
40737;SDS011;54759;48.094;-1.628;2022-08-03T14:57:06;0.60;;;0.40;;
40737;SDS011;54759;48.094;-1.628;2022-08-03T15:00:08;0.30;;;0.22;;
40737;SDS011;54759;48.094;-1.628;2022-08-03T15:03:10;0.32;;;0.20;;
40737;SDS011;54759;48.094;-1.628;2022-08-03T15:06:17;0.40;;;0.20;;
40737;SDS011;54759;48.094;-1.628;2022-08-03T15:09:18;0.57;;;0.40;;
40737;SDS011;54759;48.094;-1.628;2022-08-03T15:12:25;0.80;;;0.65;;
40737;SDS011;54759;48.094;-1.628;2022-08-03T15:15:26;1.13;;;0.40;;
40737;SDS011;54759;48.094;-1.628;2022-08-03T15:18:28;0.13;;;0.13;;
40737;SDS011;54759;48.094;-1.628;2022-08-03T15:21:30;0.47;;;0.30;;
40737;SDS011;54759;48.094;-1.628;2022-08-03T15:24:47;0.20;;;0.20;;
40737;SDS011;54759;48.094;-1.628;2022-08-03T15:27:50;0.73;;;0.20;;
40737;SDS011;54759;48.094;-1.628;2022-08-03T15:31:04;0.40;;;0.30;;
40737;SDS011;54759;48.094;-1.628;2022-08-03T15:34:06;0.20;;;0.20;;
40737;SDS011;54759;48.094;-1.628;2022-08-03T15:37:08;0.20;;;0.20;;
40737;SDS011;54759;48.094;-1.628;2022-08-03T15:40:17;0.28;;;0.28;;
40737;SDS011;54759;48.094;-1.628;2022-08-03T15:43:19;0.20;;;0.15;;
40737;SDS011;54759;48.094;-1.628;2022-08-03T15:46:21;0.40;;;0.30;;
40737;SDS011;54759;48.094;-1.628;2022-08-03T15:49:30;0.20;;;0.20;;
40737;SDS011;54759;48.094;-1.628;2022-08-03T15:52:34;0.30;;;0.30;;
40737;SDS011;54759;48.094;-1.628;2022-08-03T15:55:36;0.47;;;0.30;;
40737;SDS011;54759;48.094;-1.628;2022-08-03T15:58:38;0.35;;;0.30;;
40737;SDS011;54759;48.094;-1.628;2022-08-03T16:02:03;1.83;;;0.30;;
40737;SDS011;54759;48.094;-1.628;2022-08-03T16:05:05;0.22;;;0.20;;
40737;SDS011;54759;48.094;-1.628;2022-08-03T16:08:07;0.40;;;0.30;;
40737;SDS011;54759;48.094;-1.628;2022-08-03T16:11:14;0.38;;;0.30;;
40737;SDS011;54759;48.094;-1.628;2022-08-03T16:14:16;0.40;;;0.30;;
40737;SDS011;54759;48.094;-1.628;2022-08-03T16:17:38;1.80;;;0.30;;
40737;SDS011;54759;48.094;-1.628;2022-08-03T16:20:40;0.43;;;0.30;;
40737;SDS011;54759;48.094;-1.628;2022-08-03T16:23:42;0.30;;;0.30;;
40737;SDS011;54759;48.094;-1.628;2022-08-03T16:26:47;0.20;;;0.20;;
40737;SDS011;54759;48.094;-1.628;2022-08-03T16:29:49;0.40;;;0.30;;
40737;SDS011;54759;48.094;-1.628;2022-08-03T16:32:51;0.20;;;0.20;;
40737;SDS011;54759;48.094;-1.628;2022-08-03T16:35:52;1.15;;;0.30;;
40737;SDS011;54759;48.094;-1.628;2022-08-03T16:38:54;0.60;;;0.30;;
40737;SDS011;54759;48.094;-1.628;2022-08-03T16:41:56;0.10;;;0.10;;
40737;SDS011;54759;48.094;-1.628;2022-08-03T16:45:02;0.32;;;0.20;;
40737;SDS011;54759;48.094;-1.628;2022-08-03T16:48:04;0.40;;;0.30;;
40737;SDS011;54759;48.094;-1.628;2022-08-03T16:51:06;0.30;;;0.28;;
40737;SDS011;54759;48.094;-1.628;2022-08-03T16:54:08;0.32;;;0.22;;
40737;SDS011;54759;48.094;-1.628;2022-08-03T16:57:14;0.15;;;0.15;;
40737;SDS011;54759;48.094;-1.628;2022-08-03T17:00:16;0.20;;;0.20;;
40737;SDS011;54759;48.094;-1.628;2022-08-03T17:03:35;0.25;;;0.25;;
40737;SDS011;54759;48.094;-1.628;2022-08-03T17:06:58;0.35;;;0.10;;
40737;SDS011;54759;48.094;-1.628;2022-08-03T17:10:00;0.30;;;0.30;;
40737;SDS011;54759;48.094;-1.628;2022-08-03T17:13:02;0.40;;;0.30;;
40737;SDS011;54759;48.094;-1.628;2022-08-03T17:16:07;0.30;;;0.20;;
40737;SDS011;54759;48.094;-1.628;2022-08-03T17:19:11;0.30;;;0.30;;
40737;SDS011;54759;48.094;-1.628;2022-08-03T17:22:17;0.20;;;0.20;;
40737;SDS011;54759;48.094;-1.628;2022-08-03T17:25:19;0.43;;;0.20;;
40737;SDS011;54759;48.094;-1.628;2022-08-03T17:28:45;0.43;;;0.20;;
40737;SDS011;54759;48.094;-1.628;2022-08-03T17:31:59;0.20;;;0.20;;
40737;SDS011;54759;48.094;-1.628;2022-08-03T17:35:08;0.30;;;0.30;;
40737;SDS011;54759;48.094;-1.628;2022-08-03T17:38:10;0.28;;;0.20;;
40737;SDS011;54759;48.094;-1.628;2022-08-03T17:41:17;0.35;;;0.20;;
40737;SDS011;54759;48.094;-1.628;2022-08-03T17:44:22;0.68;;;0.65;;
40737;SDS011;54759;48.094;-1.628;2022-08-03T17:47:42;0.20;;;0.20;;
40737;SDS011;54759;48.094;-1.628;2022-08-03T17:50:45;1.20;;;0.30;;
40737;SDS011;54759;48.094;-1.628;2022-08-03T17:53:52;0.43;;;0.10;;
40737;SDS011;54759;48.094;-1.628;2022-08-03T17:57:04;0.30;;;0.20;;
40737;SDS011;54759;48.094;-1.628;2022-08-03T18:00:22;0.22;;;0.20;;
40737;SDS011;54759;48.094;-1.628;2022-08-03T18:03:46;0.23;;;0.23;;
40737;SDS011;54759;48.094;-1.628;2022-08-03T18:06:59;0.60;;;0.10;;
40737;SDS011;54759;48.094;-1.628;2022-08-03T18:10:14;0.50;;;0.30;;
40737;SDS011;54759;48.094;-1.628;2022-08-03T18:13:22;0.30;;;0.20;;
40737;SDS011;54759;48.094;-1.628;2022-08-03T18:16:26;0.20;;;0.20;;
40737;SDS011;54759;48.094;-1.628;2022-08-03T18:19:34;0.40;;;0.28;;
40737;SDS011;54759;48.094;-1.628;2022-08-03T18:22:56;0.20;;;0.20;;
40737;SDS011;54759;48.094;-1.628;2022-08-03T18:26:05;0.10;;;0.10;;
40737;SDS011;54759;48.094;-1.628;2022-08-03T18:29:12;0.13;;;0.13;;
40737;SDS011;54759;48.094;-1.628;2022-08-03T18:32:14;0.40;;;0.10;;
40737;SDS011;54759;48.094;-1.628;2022-08-03T18:35:18;0.10;;;0.10;;
40737;SDS011;54759;48.094;-1.628;2022-08-03T18:38:25;0.30;;;0.10;;
40737;SDS011;54759;48.094;-1.628;2022-08-03T18:41:27;0.20;;;0.20;;